Time;durP1;ratioP1;P1;durP2;ratioP2;P2;SDS_P1;SDS_P2;PMS_P1;PMS_P2;Temp;Humidity;BMP_temperature;BMP_pressure;BME280_temperature;BME280_humidity;BME280_pressure;Samples;Min_cycle;Max_cycle;Signal;HPM_P1;HPM_P2
2021/01/26 02:54:05;;;;;;;29.83;22.08;;;77.70;2227.20;;;;;;4871210;29;20066;-80
2021/01/26 02:57:50;;;;;;;30.42;22.17;;;77.70;2227.20;;;;;;4825685;29;20141;-81
2021/01/26 03:08:11;;;;;;;34.42;23.92;;;77.60;2227.20;;;;;;4811076;29;20145;-80
2021/01/26 03:12:08;;;;;;;32.28;21.20;;;77.60;2227.20;;;;;;4811892;30;20036;-79
2021/01/26 03:15:18;;;;;;;34.53;22.85;;;77.60;2227.20;;;;;;4740719;30;20029;-79
2021/01/26 03:17:48;;;;;;;38.55;24.50;;;77.60;2227.20;;;;;;4735890;30;20037;-78
2021/01/26 03:20:39;;;;;;;37.83;25.70;;;77.60;2227.20;;;;;;4735398;30;20041;-79
2021/01/26 03:23:17;;;;;;;34.78;24.67;;;77.60;2227.20;;;;;;4735554;30;20041;-79
2021/01/26 03:25:53;;;;;;;36.15;25.50;;;77.60;2227.20;;;;;;4734835;30;20140;-78
2021/01/26 03:28:55;;;;;;;32.47;22.92;;;77.50;2227.20;;;;;;4786491;30;20738;-79
2021/01/26 03:31:53;;;;;;;38.63;24.77;;;77.50;2227.20;;;;;;4776571;30;20061;-79
2021/01/26 03:34:23;;;;;;;34.92;23.98;;;77.40;2227.20;;;;;;4786574;30;20043;-79
2021/01/26 03:37:01;;;;;;;35.10;23.65;;;77.40;2227.20;;;;;;4786213;30;20039;-79
2021/01/26 03:39:56;;;;;;;28.00;20.25;;;77.30;2227.20;;;;;;4777629;30;20056;-79
2021/01/26 03:43:21;;;;;;;33.63;23.10;;;77.40;2227.20;;;;;;4746847;30;20139;-80
2021/01/26 03:46:32;;;;;;;33.88;23.52;;;77.40;2227.20;;;;;;4755664;30;20063;-80
2021/01/26 03:49:53;;;;;;;36.90;22.98;;;77.40;2227.20;;;;;;4750068;29;20042;-79
2021/01/26 03:52:46;;;;;;;;;;;77.30;2227.20;;;;;;4829053;29;20031;-79
2021/01/26 03:55:24;;;;;;;37.88;23.17;;;77.30;2227.20;;;;;;4826386;29;19944;-79
2021/01/26 03:58:21;;;;;;;32.45;23.75;;;77.30;2227.20;;;;;;4801837;29;20442;-78
2021/01/26 04:01:36;;;;;;;33.15;23.85;;;77.30;2227.20;;;;;;4799853;29;20038;-78
2021/01/26 04:04:10;;;;;;;30.13;22.70;;;77.30;2227.20;;;;;;4774487;29;20103;-78
2021/01/26 04:06:55;;;;;;;34.00;23.25;;;77.20;2227.20;;;;;;4806415;29;20070;-78
2021/01/26 04:09:35;;;;;;;31.73;22.23;;;77.20;2227.20;;;;;;4821998;29;20103;-78
2021/01/26 04:12:28;;;;;;;36.65;23.30;;;77.20;2227.20;;;;;;4838023;29;20038;-79
2021/01/26 04:15:25;;;;;;;32.35;21.67;;;77.30;2227.20;;;;;;4833463;29;20035;-79
2021/01/26 04:18:42;;;;;;;35.80;22.08;;;77.30;2227.20;;;;;;4797671;29;20046;-78
2021/01/26 04:21:10;;;;;;;34.15;23.08;;;77.20;2227.20;;;;;;4739306;30;20052;-79
2021/01/26 04:42:34;;;;;;;32.03;23.67;;;76.90;2227.20;;;;;;5066230;24;20033;-78
2021/01/26 04:45:08;;;;;;;36.63;24.58;;;76.90;2227.20;;;;;;4858583;29;20042;-78
2021/01/26 04:48:11;;;;;;;31.83;23.40;;;76.90;2227.20;;;;;;4863438;29;20025;-79
2021/01/26 04:51:35;;;;;;;35.53;25.05;;;76.90;2227.20;;;;;;4851935;29;20045;-79
2021/01/26 04:54:48;;;;;;;35.95;23.85;;;76.90;2227.20;;;;;;4859180;29;20121;-79
2021/01/26 04:58:25;;;;;;;38.22;24.35;;;77.00;2227.20;;;;;;4863276;29;20022;-79
2021/01/26 05:01:55;;;;;;;32.28;23.98;;;77.00;2227.20;;;;;;4798577;29;20031;-79
2021/01/26 05:08:46;;;;;;;59.65;35.72;;;76.80;2227.20;;;;;;4810428;30;20050;-80
2021/01/26 05:15:28;;;;;;;48.10;29.38;;;76.80;2227.20;;;;;;4704109;30;20399;-80
2021/01/26 05:18:56;;;;;;;44.20;29.58;;;76.80;2227.20;;;;;;4704702;30;20069;-79
2021/01/26 05:25:39;;;;;;;33.60;23.80;;;76.80;2227.20;;;;;;4633755;31;20107;-80
2021/01/26 05:32:01;;;;;;;43.05;26.25;;;52.10;2227.20;;;;;;4551132;31;20056;-80
2021/01/26 05:34:48;;;;;;;40.17;26.38;;;52.00;2227.20;;;;;;4569391;31;20049;-79
2021/01/26 05:37:52;;;;;;;33.15;23.73;;;51.90;2227.20;;;;;;4565330;31;20049;-79
2021/01/26 05:50:27;;;;;;;44.35;24.98;;;51.80;2227.20;;;;;;4540406;31;20186;-78
2021/01/26 05:53:32;;;;;;;41.67;25.77;;;51.80;2227.20;;;;;;4539973;31;20036;-79
2021/01/26 05:56:59;;;;;;;33.30;23.75;;;51.80;2227.20;;;;;;4583551;31;20523;-81
2021/01/26 05:59:45;;;;;;;46.75;26.48;;;51.80;2227.20;;;;;;4591795;31;20073;-80
2021/01/26 06:02:37;;;;;;;49.65;28.98;;;51.70;2227.20;;;;;;4594226;31;20548;-79
2021/01/26 06:05:45;;;;;;;44.33;27.02;;;51.60;2227.20;;;;;;4637046;31;20090;-79
2021/01/26 06:08:41;;;;;;;37.90;25.20;;;51.70;2227.20;;;;;;4596085;31;20096;-81
2021/01/26 06:11:36;;;;;;;39.00;21.75;;;51.70;2201.60;;;;;;4583540;31;20120;-80
2021/01/26 06:14:34;;;;;;;31.98;22.48;;;51.60;2227.20;;;;;;4598735;31;20055;-80
2021/01/26 06:17:39;;;;;;;37.55;23.42;;;51.70;2227.20;;;;;;4606080;31;20043;-80
2021/01/26 06:20:24;;;;;;;36.38;22.25;;;51.70;2227.20;;;;;;4628486;31;20043;-78
2021/01/26 06:23:02;;;;;;;40.85;26.70;;;51.60;2227.20;;;;;;4623216;30;20051;-78
2021/01/26 06:25:50;;;;;;;37.10;26.42;;;51.70;2227.20;;;;;;4628157;30;20048;-79
2021/01/26 06:28:36;;;;;;;42.63;24.42;;;51.70;2227.20;;;;;;4697883;30;20047;-79
2021/01/26 06:31:28;;;;;;;38.60;23.55;;;51.70;2227.20;;;;;;4703810;30;20051;-79
2021/01/26 06:34:51;;;;;;;38.65;25.20;;;51.70;2227.20;;;;;;4751026;30;20035;-79
2021/01/26 06:37:52;;;;;;;37.45;23.80;;;51.70;2201.60;;;;;;4710285;30;20037;-79
2021/01/26 06:41:04;;;;;;;35.83;24.88;;;51.60;2201.60;;;;;;4737492;30;20033;-79
2021/01/26 06:44:17;;;;;;;42.35;26.25;;;51.70;2201.60;;;;;;4703801;30;20111;-79
2021/01/26 06:47:21;;;;;;;41.10;24.42;;;51.60;2201.60;;;;;;4683436;30;20070;-78
2021/01/26 06:50:11;;;;;;;46.13;28.73;;;51.60;2227.20;;;;;;4719264;30;20040;-79
2021/01/26 06:52:47;;;;;;;40.30;22.77;;;51.70;2201.60;;;;;;4718408;30;20029;-79
2021/01/26 06:55:21;;;;;;;;;;;51.70;2227.20;;;;;;4721696;30;20072;-79
2021/01/26 06:59:00;;;;;;;34.55;23.17;;;51.80;2201.60;;;;;;4724329;30;19946;-79
2021/01/26 07:01:58;;;;;;;35.08;20.75;;;51.90;2176.00;;;;;;4722179;30;20014;-79
2021/01/26 07:05:01;;;;;;;33.75;21.45;;;51.90;2176.00;;;;;;4721082;30;20052;-80
2021/01/26 07:08:28;;;;;;;39.03;24.40;;;51.90;2176.00;;;;;;4715063;30;20136;-78
2021/01/26 07:11:46;;;;;;;35.10;22.98;;;51.90;2176.00;;;;;;4646969;30;20106;-79
2021/01/26 07:14:50;;;;;;;33.30;22.25;;;51.90;2176.00;;;;;;4646194;31;20045;-79
2021/01/26 07:17:59;;;;;;;38.45;24.50;;;52.00;2150.40;;;;;;4643032;31;20051;-79
2021/01/26 07:21:03;;;;;;;40.30;22.85;;;52.00;2176.00;;;;;;4630259;31;20040;-79
2021/01/26 07:23:56;;;;;;;36.90;21.58;;;52.10;2150.40;;;;;;4645876;31;20042;-78
2021/01/26 07:27:04;;;;;;;35.85;23.95;;;76.80;2150.40;;;;;;4652993;31;20031;-79
2021/01/26 07:29:48;;;;;;;42.10;25.23;;;76.80;2124.80;;;;;;4650519;30;20055;-77
2021/01/26 07:32:35;;;;;;;39.15;23.05;;;76.90;2124.80;;;;;;4651495;31;20090;-79
2021/01/26 07:35:43;;;;;;;39.00;24.15;;;76.90;2124.80;;;;;;4651525;31;20039;-79
2021/01/26 07:38:44;;;;;;;33.78;20.27;;;76.90;2124.80;;;;;;4625793;31;20054;-79
2021/01/26 07:41:50;;;;;;;36.00;22.00;;;76.90;2124.80;;;;;;4651200;31;20087;-79
2021/01/26 07:45:13;;;;;;;36.92;22.50;;;77.00;2124.80;;;;;;4636028;31;20181;-80
2021/01/26 07:48:25;;;;;;;39.15;26.20;;;77.10;2099.20;;;;;;4711688;30;20049;-79
2021/01/26 07:51:50;;;;;;;47.63;27.88;;;77.20;2124.80;;;;;;4734465;30;20037;-84
2021/01/26 07:55:19;;;;;;;33.28;22.13;;;77.20;2124.80;;;;;;4741633;30;20025;-79
2021/01/26 08:05:20;;;;;;;41.50;24.00;;;77.40;2073.60;;;;;;4775924;30;20051;-80
2021/01/26 08:08:31;;;;;;;36.47;21.88;;;77.50;2073.60;;;;;;4707307;30;20029;-82
2021/01/26 08:11:25;;;;;;;35.10;21.10;;;77.60;2022.40;;;;;;4691461;30;20085;-82
2021/01/26 08:18:05;;;;;;;38.40;20.83;;;102.40;1996.80;;;;;;4693187;30;20060;-80
2021/01/26 08:21:17;;;;;;;29.45;19.75;;;102.60;1996.80;;;;;;4705698;30;20041;-83
2021/01/26 08:49:35;;;;;;;35.10;21.30;;;102.90;1920.00;;;;;;1125278;24;20319;-81
2021/01/26 09:13:22;;;;;;;37.10;22.38;;;102.40;1971.20;;;;;;4774079;30;20099;-84
2021/01/26 09:58:45;;;;;;;59.75;34.30;;;102.40;1971.20;;;;;;4557283;29;8920937;-80
2021/01/26 10:05:31;;;;;;;46.90;27.55;;;102.50;1971.20;;;;;;4811397;29;20052;-82
2021/01/26 10:08:31;;;;;;;49.40;28.15;;;102.50;1971.20;;;;;;4777297;30;20050;-81
2021/01/26 10:12:08;;;;;;;41.30;24.75;;;102.50;1971.20;;;;;;4746195;30;20025;-80
2021/01/26 10:18:18;;;;;;;52.55;32.30;;;102.40;2022.40;;;;;;4841523;29;20118;-79
2021/01/26 10:24:37;;;;;;;48.42;28.45;;;102.50;1971.20;;;;;;4719324;30;20085;-80
2021/01/26 10:27:23;;;;;;;49.42;28.83;;;102.40;1971.20;;;;;;4691672;30;20065;-79
2021/01/26 10:30:26;;;;;;;47.92;29.80;;;77.70;1996.80;;;;;;4710989;30;20045;-79
2021/01/26 10:33:33;;;;;;;41.88;26.30;;;77.70;1996.80;;;;;;4730797;30;20041;-79
2021/01/26 10:36:27;;;;;;;48.72;26.55;;;102.40;2022.40;;;;;;4731536;30;20048;-79
2021/01/26 10:39:32;;;;;;;35.15;20.88;;;77.70;2022.40;;;;;;4733636;30;20122;-79
2021/01/26 10:42:07;;;;;;;40.22;22.40;;;77.60;2022.40;;;;;;4720013;30;20041;-79
2021/01/26 10:44:58;;;;;;;36.17;22.77;;;77.60;2048.00;;;;;;4734099;30;20041;-79
2021/01/26 10:47:57;;;;;;;38.65;23.90;;;77.60;2022.40;;;;;;4735412;30;20034;-79
2021/01/26 10:51:17;;;;;;;36.17;21.90;;;77.50;2048.00;;;;;;4734356;30;20048;-80
2021/01/26 10:54:15;;;;;;;;;;;77.50;2048.00;;;;;;4702611;30;20037;-80
2021/01/26 10:57:15;;;;;;;39.95;26.38;;;77.60;2048.00;;;;;;4692041;30;19978;-80
2021/01/26 11:03:52;;;;;;;38.90;24.88;;;77.60;2099.20;;;;;;4791180;30;20018;-80
2021/01/26 11:06:44;;;;;;;41.47;24.60;;;77.50;2099.20;;;;;;4775825;30;20051;-80
2021/01/26 11:10:09;;;;;;;44.90;27.90;;;77.30;2150.40;;;;;;4737969;30;20029;-81
2021/01/26 11:16:51;;;;;;;47.28;28.42;;;77.30;2201.60;;;;;;4672495;30;20066;-80
2021/01/26 11:45:49;;;;;;;46.58;26.88;;;77.00;2176.00;;;;;;4731230;30;20241;-79
2021/01/26 11:49:12;;;;;;;52.72;28.83;;;77.00;2176.00;;;;;;4736589;30;20058;-78
2021/01/26 11:52:20;;;;;;;44.03;29.67;;;77.00;2201.60;;;;;;4707314;30;20022;-80
2021/01/26 11:56:04;;;;;;;45.60;27.00;;;77.00;2201.60;;;;;;4692051;30;20030;-80
2021/01/26 11:58:59;;;;;;;45.95;27.92;;;77.10;2201.60;;;;;;4637969;30;20054;-82
2021/01/26 12:05:31;;;;;;;57.20;30.08;;;77.00;2201.60;;;;;;4621432;30;20043;-83
2021/01/26 14:31:18;;;;;;;46.40;27.90;;;77.30;2227.20;;;;;;5893006;24;21228;31
2021/01/26 14:34:26;;;;;;;50.15;28.27;;;77.30;2227.20;;;;;;4760920;30;20045;-82
2021/01/26 14:44:49;;;;;;;54.30;33.00;;;77.30;2227.20;;;;;;4734444;30;20027;-85
2021/01/26 14:48:08;;;;;;;60.42;37.63;;;77.30;2227.20;;;;;;4651236;30;20547;-83
2021/01/26 14:55:01;;;;;;;49.55;32.22;;;77.50;2201.60;;;;;;4643631;30;20056;-85
2021/01/26 16:00:33;;;;;;;43.28;26.63;;;77.40;2201.60;;;;;;5673490;24;20050;-80
2021/01/26 16:03:28;;;;;;;51.42;30.02;;;77.40;2201.60;;;;;;4864530;29;20041;-81
2021/01/26 16:08:52;;;;;;;53.38;31.70;;;77.40;2201.60;;;;;;5135026;24;20046;-82
2021/01/26 20:29:04;;;;;;;52.67;29.83;;;51.20;2099.20;;;;;;5881850;24;21459;31
2021/01/26 20:32:02;;;;;;;51.63;30.88;;;51.30;2073.60;;;;;;4826830;29;20074;-81
2021/01/26 20:34:36;;;;;;;47.80;31.00;;;51.20;2099.20;;;;;;4798142;29;20039;-82
2021/01/26 20:37:52;;;;;;;50.92;31.10;;;51.20;2099.20;;;;;;4828524;29;20039;-81
2021/01/26 20:41:04;;;;;;;47.20;31.00;;;51.20;2099.20;;;;;;4828654;29;20039;-80
2021/01/26 20:44:10;;;;;;;55.28;31.75;;;51.20;2099.20;;;;;;4722081;30;20060;-80
2021/01/26 21:10:53;;;;;;;47.45;30.42;;;26.30;2073.60;;;;;;4814737;29;20025;-81
2021/01/26 21:22:52;;;;;;;48.97;30.50;;;51.20;2099.20;;;;;;4860485;29;20061;-83
2021/01/26 21:25:48;;;;;;;45.47;27.08;;;26.20;2073.60;;;;;;4820517;29;20050;-83
2021/01/26 21:28:41;;;;;;;40.75;26.83;;;26.20;2073.60;;;;;;4856676;29;20061;-82
